sensor_id;sensor_type;location;lat;lon;timestamp;temperature;humidity
65203;HTU21D;51788;45.124;38.966;2023-04-25T00:01:45;12.77;86.35
65203;HTU21D;51788;45.124;38.966;2023-04-25T00:04:11;12.78;86.27
65203;HTU21D;51788;45.124;38.966;2023-04-25T00:06:37;12.73;86.31
65203;HTU21D;51788;45.124;38.966;2023-04-25T00:09:04;12.72;86.35
65203;HTU21D;51788;45.124;38.966;2023-04-25T00:11:33;12.69;86.41
65203;HTU21D;51788;45.124;38.966;2023-04-25T00:13:59;12.66;86.58
65203;HTU21D;51788;45.124;38.966;2023-04-25T00:16:28;12.63;86.66
65203;HTU21D;51788;45.124;38.966;2023-04-25T00:18:56;12.63;86.78
65203;HTU21D;51788;45.124;38.966;2023-04-25T00:21:22;12.59;86.92
65203;HTU21D;51788;45.124;38.966;2023-04-25T00:23:50;12.55;86.95
65203;HTU21D;51788;45.124;38.966;2023-04-25T00:26:16;12.53;86.99
65203;HTU21D;51788;45.124;38.966;2023-04-25T00:28:41;12.47;87.07
65203;HTU21D;51788;45.124;38.966;2023-04-25T00:31:07;12.42;87.18
65203;HTU21D;51788;45.124;38.966;2023-04-25T00:33:33;12.40;87.22
65203;HTU21D;51788;45.124;38.966;2023-04-25T00:36:00;12.37;87.19
65203;HTU21D;51788;45.124;38.966;2023-04-25T00:38:26;12.34;87.16
65203;HTU21D;51788;45.124;38.966;2023-04-25T00:40:52;12.31;87.21
65203;HTU21D;51788;45.124;38.966;2023-04-25T00:43:18;12.30;87.17
65203;HTU21D;51788;45.124;38.966;2023-04-25T00:45:47;12.30;87.03
65203;HTU21D;51788;45.124;38.966;2023-04-25T00:48:17;12.29;86.95
65203;HTU21D;51788;45.124;38.966;2023-04-25T00:50:53;12.31;86.86
65203;HTU21D;51788;45.124;38.966;2023-04-25T00:53:23;12.34;86.75
65203;HTU21D;51788;45.124;38.966;2023-04-25T00:55:50;12.35;86.62
65203;HTU21D;51788;45.124;38.966;2023-04-25T00:58:20;12.37;86.53
65203;HTU21D;51788;45.124;38.966;2023-04-25T01:00:48;12.38;86.41
65203;HTU21D;51788;45.124;38.966;2023-04-25T01:03:16;12.40;86.39
65203;HTU21D;51788;45.124;38.966;2023-04-25T01:05:43;12.44;86.26
65203;HTU21D;51788;45.124;38.966;2023-04-25T01:08:09;12.46;86.16
65203;HTU21D;51788;45.124;38.966;2023-04-25T01:10:36;12.45;86.12
65203;HTU21D;51788;45.124;38.966;2023-04-25T01:13:03;12.43;86.06
65203;HTU21D;51788;45.124;38.966;2023-04-25T01:15:29;12.44;85.94
65203;HTU21D;51788;45.124;38.966;2023-04-25T01:17:55;12.43;85.97
65203;HTU21D;51788;45.124;38.966;2023-04-25T01:20:22;12.44;85.88
65203;HTU21D;51788;45.124;38.966;2023-04-25T01:22:50;12.45;85.82
65203;HTU21D;51788;45.124;38.966;2023-04-25T01:25:18;12.45;85.71
65203;HTU21D;51788;45.124;38.966;2023-04-25T01:27:44;12.44;85.73
65203;HTU21D;51788;45.124;38.966;2023-04-25T01:30:11;12.44;85.72
65203;HTU21D;51788;45.124;38.966;2023-04-25T01:32:38;12.44;85.76
65203;HTU21D;51788;45.124;38.966;2023-04-25T01:35:08;12.43;85.75
65203;HTU21D;51788;45.124;38.966;2023-04-25T01:37:39;12.43;85.64
65203;HTU21D;51788;45.124;38.966;2023-04-25T01:40:06;12.42;85.60
65203;HTU21D;51788;45.124;38.966;2023-04-25T01:42:33;12.42;85.66
65203;HTU21D;51788;45.124;38.966;2023-04-25T01:45:00;12.41;85.63
65203;HTU21D;51788;45.124;38.966;2023-04-25T01:47:26;12.41;85.65
65203;HTU21D;51788;45.124;38.966;2023-04-25T01:49:54;12.41;85.69
65203;HTU21D;51788;45.124;38.966;2023-04-25T01:52:20;12.41;85.70
65203;HTU21D;51788;45.124;38.966;2023-04-25T01:54:47;12.41;85.74
65203;HTU21D;51788;45.124;38.966;2023-04-25T01:57:14;12.40;85.77
65203;HTU21D;51788;45.124;38.966;2023-04-25T01:59:43;12.38;85.74
65203;HTU21D;51788;45.124;38.966;2023-04-25T02:02:35;12.37;85.77
65203;HTU21D;51788;45.124;38.966;2023-04-25T02:05:02;12.36;85.80
65203;HTU21D;51788;45.124;38.966;2023-04-25T02:07:29;12.37;85.83
65203;HTU21D;51788;45.124;38.966;2023-04-25T02:09:56;12.35;85.84
65203;HTU21D;51788;45.124;38.966;2023-04-25T02:12:23;12.36;85.87
65203;HTU21D;51788;45.124;38.966;2023-04-25T02:14:54;12.35;85.87
65203;HTU21D;51788;45.124;38.966;2023-04-25T02:17:46;12.34;85.89
65203;HTU21D;51788;45.124;38.966;2023-04-25T02:20:12;12.32;85.97
65203;HTU21D;51788;45.124;38.966;2023-04-25T02:22:39;12.31;86.03
65203;HTU21D;51788;45.124;38.966;2023-04-25T02:25:06;12.29;86.06
65203;HTU21D;51788;45.124;38.966;2023-04-25T02:27:35;12.29;86.06
65203;HTU21D;51788;45.124;38.966;2023-04-25T02:30:01;12.32;86.05
65203;HTU21D;51788;45.124;38.966;2023-04-25T02:32:27;12.32;86.03
65203;HTU21D;51788;45.124;38.966;2023-04-25T02:34:53;12.34;86.00
65203;HTU21D;51788;45.124;38.966;2023-04-25T02:37:19;12.35;85.93
65203;HTU21D;51788;45.124;38.966;2023-04-25T02:39:45;12.35;85.90
65203;HTU21D;51788;45.124;38.966;2023-04-25T02:42:11;12.36;85.78
65203;HTU21D;51788;45.124;38.966;2023-04-25T02:44:37;12.37;85.72
65203;HTU21D;51788;45.124;38.966;2023-04-25T02:47:04;12.38;85.63
65203;HTU21D;51788;45.124;38.966;2023-04-25T02:49:30;12.40;85.63
65203;HTU21D;51788;45.124;38.966;2023-04-25T02:51:56;12.43;85.51
65203;HTU21D;51788;45.124;38.966;2023-04-25T02:54:22;12.46;85.39
65203;HTU21D;51788;45.124;38.966;2023-04-25T02:56:48;12.48;85.35
65203;HTU21D;51788;45.124;38.966;2023-04-25T02:59:20;12.52;85.28
65203;HTU21D;51788;45.124;38.966;2023-04-25T03:01:46;12.57;85.03
65203;HTU21D;51788;45.124;38.966;2023-04-25T03:04:12;12.62;84.66
65203;HTU21D;51788;45.124;38.966;2023-04-25T03:06:38;12.62;84.62
65203;HTU21D;51788;45.124;38.966;2023-04-25T03:09:04;12.63;84.64
65203;HTU21D;51788;45.124;38.966;2023-04-25T03:11:30;12.65;84.59
65203;HTU21D;51788;45.124;38.966;2023-04-25T03:13:56;12.67;84.52
65203;HTU21D;51788;45.124;38.966;2023-04-25T03:16:23;12.69;84.50
65203;HTU21D;51788;45.124;38.966;2023-04-25T03:18:51;12.71;84.48
65203;HTU21D;51788;45.124;38.966;2023-04-25T03:21:17;12.74;84.35
65203;HTU21D;51788;45.124;38.966;2023-04-25T03:23:43;12.74;84.39
65203;HTU21D;51788;45.124;38.966;2023-04-25T03:26:09;12.78;84.25
65203;HTU21D;51788;45.124;38.966;2023-04-25T03:28:35;12.79;83.89
65203;HTU21D;51788;45.124;38.966;2023-04-25T03:31:01;12.78;83.74
65203;HTU21D;51788;45.124;38.966;2023-04-25T03:33:27;12.81;83.49
65203;HTU21D;51788;45.124;38.966;2023-04-25T03:35:53;12.84;83.38
65203;HTU21D;51788;45.124;38.966;2023-04-25T03:38:19;12.87;83.10
65203;HTU21D;51788;45.124;38.966;2023-04-25T03:40:45;12.88;83.03
65203;HTU21D;51788;45.124;38.966;2023-04-25T03:43:44;12.89;83.11
65203;HTU21D;51788;45.124;38.966;2023-04-25T03:46:12;12.93;82.93
65203;HTU21D;51788;45.124;38.966;2023-04-25T03:48:39;12.97;82.64
65203;HTU21D;51788;45.124;38.966;2023-04-25T03:51:06;13.00;82.36
65203;HTU21D;51788;45.124;38.966;2023-04-25T03:53:35;13.03;82.16
65203;HTU21D;51788;45.124;38.966;2023-04-25T03:56:19;13.08;82.09
65203;HTU21D;51788;45.124;38.966;2023-04-25T03:58:49;13.16;81.98
65203;HTU21D;51788;45.124;38.966;2023-04-25T04:01:17;13.23;81.69
65203;HTU21D;51788;45.124;38.966;2023-04-25T04:03:44;13.30;81.35
65203;HTU21D;51788;45.124;38.966;2023-04-25T04:06:10;13.39;81.29
65203;HTU21D;51788;45.124;38.966;2023-04-25T04:08:39;13.46;80.91
65203;HTU21D;51788;45.124;38.966;2023-04-25T04:11:05;13.48;80.60
65203;HTU21D;51788;45.124;38.966;2023-04-25T04:13:32;13.47;80.43
65203;HTU21D;51788;45.124;38.966;2023-04-25T04:15:59;13.47;80.69
65203;HTU21D;51788;45.124;38.966;2023-04-25T04:18:25;13.47;80.28
65203;HTU21D;51788;45.124;38.966;2023-04-25T04:20:52;13.40;80.16
65203;HTU21D;51788;45.124;38.966;2023-04-25T04:23:19;13.33;80.60
65203;HTU21D;51788;45.124;38.966;2023-04-25T04:25:46;13.26;80.75
65203;HTU21D;51788;45.124;38.966;2023-04-25T04:28:31;13.29;80.94
65203;HTU21D;51788;45.124;38.966;2023-04-25T04:31:06;13.35;80.99
65203;HTU21D;51788;45.124;38.966;2023-04-25T04:33:33;13.46;81.00
65203;HTU21D;51788;45.124;38.966;2023-04-25T04:36:03;13.61;81.00
65203;HTU21D;51788;45.124;38.966;2023-04-25T04:38:30;13.74;80.72
65203;HTU21D;51788;45.124;38.966;2023-04-25T04:41:00;13.76;80.42
65203;HTU21D;51788;45.124;38.966;2023-04-25T04:43:49;13.73;80.09
65203;HTU21D;51788;45.124;38.966;2023-04-25T04:46:33;13.67;80.40
65203;HTU21D;51788;45.124;38.966;2023-04-25T04:49:29;13.66;80.55
65203;HTU21D;51788;45.124;38.966;2023-04-25T04:52:06;13.67;80.73
65203;HTU21D;51788;45.124;38.966;2023-04-25T04:54:55;13.65;80.65
65203;HTU21D;51788;45.124;38.966;2023-04-25T04:57:45;13.61;80.57
65203;HTU21D;51788;45.124;38.966;2023-04-25T05:00:12;13.56;80.82
65203;HTU21D;51788;45.124;38.966;2023-04-25T05:02:56;13.53;80.79
65203;HTU21D;51788;45.124;38.966;2023-04-25T05:05:48;13.55;80.78
65203;HTU21D;51788;45.124;38.966;2023-04-25T05:08:35;13.58;80.72
65203;HTU21D;51788;45.124;38.966;2023-04-25T05:11:33;13.60;80.32
65203;HTU21D;51788;45.124;38.966;2023-04-25T05:14:25;13.64;80.01
65203;HTU21D;51788;45.124;38.966;2023-04-25T05:17:26;13.65;80.17
65203;HTU21D;51788;45.124;38.966;2023-04-25T05:19:59;13.70;80.25
65203;HTU21D;51788;45.124;38.966;2023-04-25T05:22:48;13.80;79.86
65203;HTU21D;51788;45.124;38.966;2023-04-25T05:25:32;13.92;79.14
65203;HTU21D;51788;45.124;38.966;2023-04-25T05:28:05;13.96;78.81
65203;HTU21D;51788;45.124;38.966;2023-04-25T05:30:57;14.00;78.28
65203;HTU21D;51788;45.124;38.966;2023-04-25T05:33:46;14.04;78.14
65203;HTU21D;51788;45.124;38.966;2023-04-25T05:36:12;14.08;78.02
65203;HTU21D;51788;45.124;38.966;2023-04-25T05:38:38;14.11;77.91
65203;HTU21D;51788;45.124;38.966;2023-04-25T05:41:13;14.14;77.66
65203;HTU21D;51788;45.124;38.966;2023-04-25T05:44:01;14.15;77.75
65203;HTU21D;51788;45.124;38.966;2023-04-25T05:46:48;14.20;77.63
65203;HTU21D;51788;45.124;38.966;2023-04-25T05:49:32;14.20;77.11
65203;HTU21D;51788;45.124;38.966;2023-04-25T05:52:19;14.21;76.85
65203;HTU21D;51788;45.124;38.966;2023-04-25T05:54:56;14.21;76.78
65203;HTU21D;51788;45.124;38.966;2023-04-25T05:57:23;14.24;76.63
65203;HTU21D;51788;45.124;38.966;2023-04-25T05:59:50;14.28;76.70
65203;HTU21D;51788;45.124;38.966;2023-04-25T06:02:17;14.37;76.73
65203;HTU21D;51788;45.124;38.966;2023-04-25T06:04:44;14.47;76.29
65203;HTU21D;51788;45.124;38.966;2023-04-25T06:07:10;14.53;76.47
65203;HTU21D;51788;45.124;38.966;2023-04-25T06:09:36;14.63;76.31
65203;HTU21D;51788;45.124;38.966;2023-04-25T06:12:05;14.69;75.94
65203;HTU21D;51788;45.124;38.966;2023-04-25T06:14:31;14.68;76.12
65203;HTU21D;51788;45.124;38.966;2023-04-25T06:16:57;14.70;76.21
65203;HTU21D;51788;45.124;38.966;2023-04-25T06:19:23;14.72;76.39
65203;HTU21D;51788;45.124;38.966;2023-04-25T06:21:49;14.86;76.21
65203;HTU21D;51788;45.124;38.966;2023-04-25T06:24:16;14.96;75.89
65203;HTU21D;51788;45.124;38.966;2023-04-25T06:26:42;14.94;75.81
65203;HTU21D;51788;45.124;38.966;2023-04-25T06:29:08;14.92;76.05
65203;HTU21D;51788;45.124;38.966;2023-04-25T06:31:34;14.86;76.08
65203;HTU21D;51788;45.124;38.966;2023-04-25T06:34:01;14.86;76.22
65203;HTU21D;51788;45.124;38.966;2023-04-25T06:36:31;14.89;76.09
65203;HTU21D;51788;45.124;38.966;2023-04-25T06:39:04;14.91;76.26
65203;HTU21D;51788;45.124;38.966;2023-04-25T06:41:31;14.96;76.17
65203;HTU21D;51788;45.124;38.966;2023-04-25T06:44:01;15.08;75.50
65203;HTU21D;51788;45.124;38.966;2023-04-25T06:46:31;15.16;74.70
65203;HTU21D;51788;45.124;38.966;2023-04-25T06:48:58;15.34;73.67
65203;HTU21D;51788;45.124;38.966;2023-04-25T06:51:24;15.43;73.36
65203;HTU21D;51788;45.124;38.966;2023-04-25T06:53:54;15.52;72.57
65203;HTU21D;51788;45.124;38.966;2023-04-25T06:56:38;15.57;71.74
65203;HTU21D;51788;45.124;38.966;2023-04-25T06:59:09;15.58;71.62
65203;HTU21D;51788;45.124;38.966;2023-04-25T07:01:37;15.59;71.28
65203;HTU21D;51788;45.124;38.966;2023-04-25T07:04:09;15.59;71.25
65203;HTU21D;51788;45.124;38.966;2023-04-25T07:06:40;15.66;71.03
65203;HTU21D;51788;45.124;38.966;2023-04-25T07:09:09;15.73;70.66
65203;HTU21D;51788;45.124;38.966;2023-04-25T07:11:40;15.81;70.55
65203;HTU21D;51788;45.124;38.966;2023-04-25T07:14:06;15.89;70.14
65203;HTU21D;51788;45.124;38.966;2023-04-25T07:16:33;16.06;69.86
65203;HTU21D;51788;45.124;38.966;2023-04-25T07:19:00;16.25;69.64
65203;HTU21D;51788;45.124;38.966;2023-04-25T07:21:26;16.41;68.75
65203;HTU21D;51788;45.124;38.966;2023-04-25T07:23:52;16.41;67.84
65203;HTU21D;51788;45.124;38.966;2023-04-25T07:26:24;16.32;67.01
65203;HTU21D;51788;45.124;38.966;2023-04-25T07:29:16;16.21;67.04
65203;HTU21D;51788;45.124;38.966;2023-04-25T07:31:42;16.15;67.45
65203;HTU21D;51788;45.124;38.966;2023-04-25T07:34:08;16.21;67.64
65203;HTU21D;51788;45.124;38.966;2023-04-25T07:36:36;16.26;67.56
65203;HTU21D;51788;45.124;38.966;2023-04-25T07:39:02;16.19;67.52
65203;HTU21D;51788;45.124;38.966;2023-04-25T07:41:29;16.17;67.49
65203;HTU21D;51788;45.124;38.966;2023-04-25T07:43:55;16.13;67.72
65203;HTU21D;51788;45.124;38.966;2023-04-25T07:46:21;16.12;67.75
65203;HTU21D;51788;45.124;38.966;2023-04-25T07:48:47;16.14;67.65
65203;HTU21D;51788;45.124;38.966;2023-04-25T07:51:14;16.25;67.55
65203;HTU21D;51788;45.124;38.966;2023-04-25T07:53:40;16.39;67.14
65203;HTU21D;51788;45.124;38.966;2023-04-25T07:56:11;16.59;66.71
65203;HTU21D;51788;45.124;38.966;2023-04-25T07:58:39;16.69;65.31
65203;HTU21D;51788;45.124;38.966;2023-04-25T08:01:09;16.73;65.27
65203;HTU21D;51788;45.124;38.966;2023-04-25T08:04:01;16.84;64.37
65203;HTU21D;51788;45.124;38.966;2023-04-25T08:07:03;16.93;64.11
65203;HTU21D;51788;45.124;38.966;2023-04-25T08:09:35;17.00;64.22
65203;HTU21D;51788;45.124;38.966;2023-04-25T08:12:06;17.06;63.21
65203;HTU21D;51788;45.124;38.966;2023-04-25T08:14:33;17.09;62.77
65203;HTU21D;51788;45.124;38.966;2023-04-25T08:17:05;17.08;62.60
65203;HTU21D;51788;45.124;38.966;2023-04-25T08:19:33;17.14;62.58
65203;HTU21D;51788;45.124;38.966;2023-04-25T08:22:01;17.18;62.62
65203;HTU21D;51788;45.124;38.966;2023-04-25T08:24:35;17.22;62.98
65203;HTU21D;51788;45.124;38.966;2023-04-25T08:27:02;17.32;62.80
65203;HTU21D;51788;45.124;38.966;2023-04-25T08:29:30;17.46;62.84
65203;HTU21D;51788;45.124;38.966;2023-04-25T08:31:57;17.60;62.34
65203;HTU21D;51788;45.124;38.966;2023-04-25T08:34:23;17.61;62.06
65203;HTU21D;51788;45.124;38.966;2023-04-25T08:36:49;17.65;61.21
65203;HTU21D;51788;45.124;38.966;2023-04-25T08:39:37;17.65;60.35
65203;HTU21D;51788;45.124;38.966;2023-04-25T08:42:21;17.56;59.73
65203;HTU21D;51788;45.124;38.966;2023-04-25T08:44:49;17.59;59.25
65203;HTU21D;51788;45.124;38.966;2023-04-25T08:47:16;17.63;59.12
65203;HTU21D;51788;45.124;38.966;2023-04-25T08:49:49;17.68;58.19
65203;HTU21D;51788;45.124;38.966;2023-04-25T08:52:22;17.70;58.32
65203;HTU21D;51788;45.124;38.966;2023-04-25T08:54:48;17.77;57.67
65203;HTU21D;51788;45.124;38.966;2023-04-25T08:57:17;17.75;57.96
65203;HTU21D;51788;45.124;38.966;2023-04-25T08:59:45;17.65;57.91
65203;HTU21D;51788;45.124;38.966;2023-04-25T09:02:12;17.54;58.02
65203;HTU21D;51788;45.124;38.966;2023-04-25T09:04:46;17.59;58.96
65203;HTU21D;51788;45.124;38.966;2023-04-25T09:07:12;17.76;58.27
65203;HTU21D;51788;45.124;38.966;2023-04-25T09:09:44;17.87;57.97
65203;HTU21D;51788;45.124;38.966;2023-04-25T09:12:10;17.88;55.91
65203;HTU21D;51788;45.124;38.966;2023-04-25T09:14:36;17.82;56.55
65203;HTU21D;51788;45.124;38.966;2023-04-25T09:17:22;17.93;56.19
65203;HTU21D;51788;45.124;38.966;2023-04-25T09:19:52;17.98;55.98
65203;HTU21D;51788;45.124;38.966;2023-04-25T09:22:30;17.97;55.76
65203;HTU21D;51788;45.124;38.966;2023-04-25T09:24:57;17.97;56.56
65203;HTU21D;51788;45.124;38.966;2023-04-25T09:27:26;18.17;56.91
65203;HTU21D;51788;45.124;38.966;2023-04-25T09:30:01;18.30;56.11
65203;HTU21D;51788;45.124;38.966;2023-04-25T09:32:42;18.46;55.46
65203;HTU21D;51788;45.124;38.966;2023-04-25T09:35:09;18.59;54.46
65203;HTU21D;51788;45.124;38.966;2023-04-25T09:37:36;18.65;53.97
65203;HTU21D;51788;45.124;38.966;2023-04-25T09:40:06;18.52;53.72
65203;HTU21D;51788;45.124;38.966;2023-04-25T09:42:41;18.32;54.01
65203;HTU21D;51788;45.124;38.966;2023-04-25T09:45:07;18.22;53.73
65203;HTU21D;51788;45.124;38.966;2023-04-25T09:47:39;18.17;53.91
65203;HTU21D;51788;45.124;38.966;2023-04-25T09:50:17;18.08;54.62
65203;HTU21D;51788;45.124;38.966;2023-04-25T09:53:05;18.07;53.76
65203;HTU21D;51788;45.124;38.966;2023-04-25T09:55:47;18.07;54.04
65203;HTU21D;51788;45.124;38.966;2023-04-25T09:58:14;18.13;54.10
65203;HTU21D;51788;45.124;38.966;2023-04-25T10:00:41;18.17;53.10
65203;HTU21D;51788;45.124;38.966;2023-04-25T10:03:21;18.19;54.04
65203;HTU21D;51788;45.124;38.966;2023-04-25T10:06:04;18.43;53.20
65203;HTU21D;51788;45.124;38.966;2023-04-25T10:08:34;18.49;53.53
65203;HTU21D;51788;45.124;38.966;2023-04-25T10:11:02;18.44;52.94
65203;HTU21D;51788;45.124;38.966;2023-04-25T10:13:29;18.48;53.39
65203;HTU21D;51788;45.124;38.966;2023-04-25T10:16:03;18.42;53.27
65203;HTU21D;51788;45.124;38.966;2023-04-25T10:18:31;18.27;53.56
65203;HTU21D;51788;45.124;38.966;2023-04-25T10:21:02;18.09;53.52
65203;HTU21D;51788;45.124;38.966;2023-04-25T10:23:30;18.18;54.23
65203;HTU21D;51788;45.124;38.966;2023-04-25T10:25:57;18.34;54.13
65203;HTU21D;51788;45.124;38.966;2023-04-25T10:28:24;18.35;53.23
65203;HTU21D;51788;45.124;38.966;2023-04-25T10:31:03;18.24;52.91
65203;HTU21D;51788;45.124;38.966;2023-04-25T10:33:40;18.25;53.20
65203;HTU21D;51788;45.124;38.966;2023-04-25T10:38:36;18.54;52.56
65203;HTU21D;51788;45.124;38.966;2023-04-25T10:41:07;18.61;52.00
65203;HTU21D;51788;45.124;38.966;2023-04-25T10:43:36;18.67;52.09
65203;HTU21D;51788;45.124;38.966;2023-04-25T10:46:13;18.74;52.04
65203;HTU21D;51788;45.124;38.966;2023-04-25T10:48:48;18.72;52.00
65203;HTU21D;51788;45.124;38.966;2023-04-25T10:51:25;18.64;51.88
65203;HTU21D;51788;45.124;38.966;2023-04-25T10:56:31;18.83;51.36
65203;HTU21D;51788;45.124;38.966;2023-04-25T11:01:44;19.02;50.85
65203;HTU21D;51788;45.124;38.966;2023-04-25T11:04:33;19.07;51.01
65203;HTU21D;51788;45.124;38.966;2023-04-25T11:09:28;19.31;50.52
65203;HTU21D;51788;45.124;38.966;2023-04-25T11:11:55;19.26;50.59
65203;HTU21D;51788;45.124;38.966;2023-04-25T11:14:22;19.17;50.11
65203;HTU21D;51788;45.124;38.966;2023-04-25T11:16:53;19.02;49.56
65203;HTU21D;51788;45.124;38.966;2023-04-25T11:19:20;19.05;50.10
65203;HTU21D;51788;45.124;38.966;2023-04-25T11:21:46;18.92;50.52
65203;HTU21D;51788;45.124;38.966;2023-04-25T11:24:12;18.83;50.73
65203;HTU21D;51788;45.124;38.966;2023-04-25T11:26:38;18.74;50.56
65203;HTU21D;51788;45.124;38.966;2023-04-25T11:29:04;18.72;50.88
65203;HTU21D;51788;45.124;38.966;2023-04-25T11:31:30;18.77;50.69
65203;HTU21D;51788;45.124;38.966;2023-04-25T11:33:59;18.73;50.87
65203;HTU21D;51788;45.124;38.966;2023-04-25T11:36:26;18.67;51.31
65203;HTU21D;51788;45.124;38.966;2023-04-25T11:38:53;18.70;51.47
65203;HTU21D;51788;45.124;38.966;2023-04-25T11:41:19;18.67;51.43
65203;HTU21D;51788;45.124;38.966;2023-04-25T11:43:48;18.61;51.51
65203;HTU21D;51788;45.124;38.966;2023-04-25T11:46:15;18.63;51.53
65203;HTU21D;51788;45.124;38.966;2023-04-25T11:48:42;18.57;51.08
65203;HTU21D;51788;45.124;38.966;2023-04-25T11:51:08;18.44;51.29
65203;HTU21D;51788;45.124;38.966;2023-04-25T11:53:35;18.38;51.35
65203;HTU21D;51788;45.124;38.966;2023-04-25T11:56:01;18.36;51.61
65203;HTU21D;51788;45.124;38.966;2023-04-25T11:58:57;18.43;51.27
65203;HTU21D;51788;45.124;38.966;2023-04-25T12:01:34;18.53;50.87
65203;HTU21D;51788;45.124;38.966;2023-04-25T12:06:43;18.63;50.98
65203;HTU21D;51788;45.124;38.966;2023-04-25T12:09:10;18.59;51.38
65203;HTU21D;51788;45.124;38.966;2023-04-25T12:11:44;18.65;51.59
65203;HTU21D;51788;45.124;38.966;2023-04-25T12:14:20;18.78;51.78
65203;HTU21D;51788;45.124;38.966;2023-04-25T12:16:48;18.79;51.63
65203;HTU21D;51788;45.124;38.966;2023-04-25T12:19:16;18.86;51.81
65203;HTU21D;51788;45.124;38.966;2023-04-25T12:21:43;18.88;51.95
65203;HTU21D;51788;45.124;38.966;2023-04-25T12:24:14;18.94;50.95
65203;HTU21D;51788;45.124;38.966;2023-04-25T12:27:01;18.86;50.66
65203;HTU21D;51788;45.124;38.966;2023-04-25T12:29:29;18.89;51.04
65203;HTU21D;51788;45.124;38.966;2023-04-25T12:31:56;18.92;50.83
65203;HTU21D;51788;45.124;38.966;2023-04-25T12:34:23;18.88;50.53
65203;HTU21D;51788;45.124;38.966;2023-04-25T12:36:51;18.80;50.92
65203;HTU21D;51788;45.124;38.966;2023-04-25T12:39:19;18.83;50.79
65203;HTU21D;51788;45.124;38.966;2023-04-25T12:41:46;18.84;51.06
65203;HTU21D;51788;45.124;38.966;2023-04-25T12:44:12;18.86;51.27
65203;HTU21D;51788;45.124;38.966;2023-04-25T12:46:39;18.85;51.18
65203;HTU21D;51788;45.124;38.966;2023-04-25T12:49:07;18.78;50.85
65203;HTU21D;51788;45.124;38.966;2023-04-25T12:51:37;18.72;51.05
65203;HTU21D;51788;45.124;38.966;2023-04-25T12:54:04;18.71;51.17
65203;HTU21D;51788;45.124;38.966;2023-04-25T12:56:31;18.70;51.61
65203;HTU21D;51788;45.124;38.966;2023-04-25T12:58:58;18.71;51.85
65203;HTU21D;51788;45.124;38.966;2023-04-25T13:01:24;18.73;51.86
65203;HTU21D;51788;45.124;38.966;2023-04-25T13:03:51;18.61;52.17
65203;HTU21D;51788;45.124;38.966;2023-04-25T13:06:18;18.52;52.43
65203;HTU21D;51788;45.124;38.966;2023-04-25T13:08:44;18.57;52.46
65203;HTU21D;51788;45.124;38.966;2023-04-25T13:11:11;18.70;52.44
65203;HTU21D;51788;45.124;38.966;2023-04-25T13:13:37;18.79;52.05
65203;HTU21D;51788;45.124;38.966;2023-04-25T13:16:04;18.72;52.19
65203;HTU21D;51788;45.124;38.966;2023-04-25T13:18:31;18.83;52.15
65203;HTU21D;51788;45.124;38.966;2023-04-25T13:20:58;18.99;51.81
65203;HTU21D;51788;45.124;38.966;2023-04-25T13:23:27;19.00;51.66
65203;HTU21D;51788;45.124;38.966;2023-04-25T13:25:53;18.95;51.76
65203;HTU21D;51788;45.124;38.966;2023-04-25T13:28:21;18.91;51.75
65203;HTU21D;51788;45.124;38.966;2023-04-25T13:30:47;18.79;52.24
65203;HTU21D;51788;45.124;38.966;2023-04-25T13:33:14;18.67;52.73
65203;HTU21D;51788;45.124;38.966;2023-04-25T13:35:40;18.64;52.98
65203;HTU21D;51788;45.124;38.966;2023-04-25T13:38:07;18.70;52.56
65203;HTU21D;51788;45.124;38.966;2023-04-25T13:40:33;18.81;52.62
65203;HTU21D;51788;45.124;38.966;2023-04-25T13:42:59;18.96;52.28
65203;HTU21D;51788;45.124;38.966;2023-04-25T13:45:25;18.94;52.36
65203;HTU21D;51788;45.124;38.966;2023-04-25T13:47:51;18.92;52.32
65203;HTU21D;51788;45.124;38.966;2023-04-25T13:50:17;18.85;51.71
65203;HTU21D;51788;45.124;38.966;2023-04-25T13:52:43;18.76;51.60
65203;HTU21D;51788;45.124;38.966;2023-04-25T13:55:09;18.73;51.82
65203;HTU21D;51788;45.124;38.966;2023-04-25T13:57:36;18.68;52.04
65203;HTU21D;51788;45.124;38.966;2023-04-25T14:00:03;18.58;51.52
65203;HTU21D;51788;45.124;38.966;2023-04-25T14:02:34;18.36;51.77
65203;HTU21D;51788;45.124;38.966;2023-04-25T14:05:01;18.15;52.23
65203;HTU21D;51788;45.124;38.966;2023-04-25T14:07:27;18.03;52.66
65203;HTU21D;51788;45.124;38.966;2023-04-25T14:09:53;17.95;53.02
65203;HTU21D;51788;45.124;38.966;2023-04-25T14:12:19;17.98;53.19
65203;HTU21D;51788;45.124;38.966;2023-04-25T14:14:45;18.02;52.60
65203;HTU21D;51788;45.124;38.966;2023-04-25T14:17:11;17.99;52.73
65203;HTU21D;51788;45.124;38.966;2023-04-25T14:19:37;17.95;52.96
65203;HTU21D;51788;45.124;38.966;2023-04-25T14:22:09;17.99;52.81
65203;HTU21D;51788;45.124;38.966;2023-04-25T14:24:35;17.97;52.51
65203;HTU21D;51788;45.124;38.966;2023-04-25T14:27:01;17.90;52.91
65203;HTU21D;51788;45.124;38.966;2023-04-25T14:29:28;17.89;53.17
65203;HTU21D;51788;45.124;38.966;2023-04-25T14:31:53;17.88;53.51
65203;HTU21D;51788;45.124;38.966;2023-04-25T14:34:19;17.83;53.66
65203;HTU21D;51788;45.124;38.966;2023-04-25T14:36:45;17.77;53.89
65203;HTU21D;51788;45.124;38.966;2023-04-25T14:39:12;17.73;54.22
65203;HTU21D;51788;45.124;38.966;2023-04-25T14:41:39;17.69;54.50
65203;HTU21D;51788;45.124;38.966;2023-04-25T14:44:05;17.66;54.70
65203;HTU21D;51788;45.124;38.966;2023-04-25T14:46:31;17.61;54.97
65203;HTU21D;51788;45.124;38.966;2023-04-25T14:48:57;17.59;55.14
65203;HTU21D;51788;45.124;38.966;2023-04-25T14:51:23;17.55;55.37
65203;HTU21D;51788;45.124;38.966;2023-04-25T14:53:49;17.58;55.52
65203;HTU21D;51788;45.124;38.966;2023-04-25T14:56:16;17.55;55.54
65203;HTU21D;51788;45.124;38.966;2023-04-25T14:58:42;17.52;55.52
65203;HTU21D;51788;45.124;38.966;2023-04-25T15:01:08;17.49;55.54
65203;HTU21D;51788;45.124;38.966;2023-04-25T15:03:34;17.46;55.47
65203;HTU21D;51788;45.124;38.966;2023-04-25T15:06:00;17.36;55.58
65203;HTU21D;51788;45.124;38.966;2023-04-25T15:08:26;17.30;55.66
65203;HTU21D;51788;45.124;38.966;2023-04-25T15:10:52;17.25;55.42
65203;HTU21D;51788;45.124;38.966;2023-04-25T15:13:18;17.18;55.68
65203;HTU21D;51788;45.124;38.966;2023-04-25T15:15:45;17.13;55.81
65203;HTU21D;51788;45.124;38.966;2023-04-25T15:18:19;17.07;55.95
65203;HTU21D;51788;45.124;38.966;2023-04-25T15:20:47;17.03;56.19
65203;HTU21D;51788;45.124;38.966;2023-04-25T15:23:13;16.95;56.45
65203;HTU21D;51788;45.124;38.966;2023-04-25T15:25:39;16.93;56.47
65203;HTU21D;51788;45.124;38.966;2023-04-25T15:28:05;16.87;56.66
65203;HTU21D;51788;45.124;38.966;2023-04-25T15:30:31;16.82;56.84
65203;HTU21D;51788;45.124;38.966;2023-04-25T15:32:57;16.79;56.83